Lenni, Pennsylvania
Current Conditions -  °F | °C
As of 5:02 AM on Monday 26 Jan 2015 (Local Time) from KPHL Reporting Station
Light Snow Light Snow  
Wind Chill: 21°   Ceiling: 3900
Heat Index: 31°   Visibility: 10mi
Dew Point: 23°   Wind: 13mph
Humidity: 72%   Direction: 60°ENE
Pressure: 29.93"   Gusts: 20mph
Location:  39.89°N, 75.45°W
Report Text: KPHL 261002Z 06011G17KT 10SM -SN BKN039 OVC050 M01/M05 A2993 RMK AO2 SNB01 P0000 T10061050
Loading
Personal Weather Stations






























Interactive Weather Map New forecast layout! Learn more

10-Day Weather Forecast

Advertisements
Track Severe Weather on mobile